Terminal Aerodrome Forecast
Issued by NWS Wilmington, OH

Current Version | Previous Version | Graphics & Text | Print | Product List | Glossary On
Versions: 1 2 3 4 5 6 7 8 9 10 11 12 13 14 15 16 17 18 19
000
FTUS41 KILN 291700
TAFDAY
TAF
KDAY 291739Z 2918/3018 14007KT P6SM FEW050 SCT200
     FM300200 14006KT P6SM VCSH SCT050 BKN200
     FM300400 17008KT P6SM SCT050 BKN200
     FM301500 20010G18KT P6SM SCT050 BKN150=

USA.gov is the U.S. government's official web portal to all federal, state and local government web resources and services.